Time;durP1;ratioP1;P1;durP2;ratioP2;P2;SDS_P1;SDS_P2;PMS_P1;PMS_P2;Temp;Humidity;BMP_temperature;BMP_pressure;BME280_temperature;BME280_humidity;BME280_pressure;Samples;Min_cycle;Max_cycle;Signal;HPM_P1;HPM_P2
2021/11/09 00:01:44;;;;;;;12.48;4.88;;;;;;;;;;5038809;28;20024;-62
2021/11/09 00:04:09;;;;;;;13.18;5.95;;;;;;;;;;5034363;28;20055;-61
2021/11/09 00:06:41;;;;;;;4.63;2.85;;;;;;;;;;5039310;28;20460;-61
2021/11/09 00:09:10;;;;;;;12.32;3.55;;;;;;;;;;5036603;28;20040;-61
2021/11/09 00:11:36;;;;;;;11.10;3.78;;;;;;;;;;5034620;28;20025;-62
2021/11/09 00:14:01;;;;;;;10.95;5.22;;;;;;;;;;5037179;28;20021;-61
2021/11/09 00:16:28;;;;;;;14.20;5.90;;;;;;;;;;5035238;28;20485;-61
2021/11/09 00:18:53;;;;;;;20.65;3.30;;;;;;;;;;5036097;28;20026;-62
2021/11/09 00:21:19;;;;;;;10.60;3.50;;;;;;;;;;5033394;28;20027;-62
2021/11/09 00:23:46;;;;;;;12.35;4.55;;;;;;;;;;5032350;28;20036;-61
2021/11/09 00:26:11;;;;;;;19.95;4.05;;;;;;;;;;5033233;28;20442;-62
2021/11/09 00:28:37;;;;;;;12.85;3.83;;;;;;;;;;5031040;28;20021;-61
2021/11/09 00:31:02;;;;;;;15.73;4.05;;;;;;;;;;5034095;28;20029;-61
2021/11/09 00:33:29;;;;;;;18.70;4.53;;;;;;;;;;5037461;28;20040;-61
2021/11/09 00:35:55;;;;;;;13.30;4.65;;;;;;;;;;5035400;28;20026;-62
2021/11/09 00:38:20;;;;;;;7.93;4.45;;;;;;;;;;5035186;28;20037;-61
2021/11/09 00:40:45;;;;;;;16.02;4.28;;;;;;;;;;5035374;28;20029;-62
2021/11/09 00:43:15;;;;;;;12.57;4.65;;;;;;;;;;5035473;28;20036;-62
2021/11/09 00:45:41;;;;;;;12.40;5.88;;;;;;;;;;5036150;28;20269;-61
2021/11/09 00:48:06;;;;;;;22.50;7.60;;;;;;;;;;5039910;28;20484;-62
2021/11/09 00:50:39;;;;;;;17.88;5.82;;;;;;;;;;5038443;28;20044;-62
2021/11/09 00:53:07;;;;;;;15.70;7.15;;;;;;;;;;5038434;28;20017;-61
2021/11/09 00:55:33;;;;;;;18.38;5.00;;;;;;;;;;5037320;28;20044;-61
2021/11/09 00:57:58;;;;;;;13.80;4.10;;;;;;;;;;5035071;28;20062;-62
2021/11/09 01:00:25;;;;;;;7.60;2.60;;;;;;;;;;5039002;28;20098;-61
2021/11/09 01:02:51;;;;;;;15.13;4.30;;;;;;;;;;5036310;28;20021;-62
2021/11/09 01:05:22;;;;;;;30.02;8.38;;;;;;;;;;5038698;28;20029;-62
2021/11/09 01:07:48;;;;;;;13.77;3.83;;;;;;;;;;5035906;28;20025;-61
2021/11/09 01:10:15;;;;;;;12.48;3.30;;;;;;;;;;5035674;28;20028;-62
2021/11/09 01:12:40;;;;;;;12.77;5.93;;;;;;;;;;5037052;28;20531;-62
2021/11/09 01:15:06;;;;;;;15.98;4.47;;;;;;;;;;5036374;28;20116;-62
2021/11/09 01:17:32;;;;;;;17.55;5.53;;;;;;;;;;5034051;28;20021;-63
2021/11/09 01:19:57;;;;;;;29.08;5.78;;;;;;;;;;5034968;28;20028;-62
2021/11/09 01:22:22;;;;;;;10.25;2.92;;;;;;;;;;5034856;28;20028;-62
2021/11/09 01:24:48;;;;;;;21.05;4.22;;;;;;;;;;5036140;28;20094;-62
2021/11/09 01:27:13;;;;;;;11.52;4.68;;;;;;;;;;5034969;28;20021;-61
2021/11/09 01:29:38;;;;;;;12.98;5.65;;;;;;;;;;5040616;28;20021;-61
2021/11/09 01:32:04;;;;;;;10.20;3.58;;;;;;;;;;5037796;28;20047;-61
2021/11/09 01:34:29;;;;;;;10.77;3.80;;;;;;;;;;5035389;28;20013;-62
2021/11/09 01:36:55;;;;;;;16.02;6.75;;;;;;;;;;5035810;28;20025;-61
2021/11/09 01:39:20;;;;;;;9.48;4.43;;;;;;;;;;5035164;28;20033;-61
2021/11/09 01:41:46;;;;;;;18.95;5.15;;;;;;;;;;5037299;28;20048;-61
2021/11/09 01:44:12;;;;;;;11.57;2.97;;;;;;;;;;5035603;28;20079;-61
2021/11/09 01:46:37;;;;;;;8.73;3.83;;;;;;;;;;5036104;28;20548;-61
2021/11/09 01:49:03;;;;;;;12.65;2.47;;;;;;;;;;5035908;28;20175;-62
2021/11/09 01:51:29;;;;;;;18.30;5.75;;;;;;;;;;5036429;28;20024;-62
2021/11/09 01:53:55;;;;;;;9.80;3.17;;;;;;;;;;5029830;28;20538;-62
2021/11/09 01:56:29;;;;;;;19.00;3.13;;;;;;;;;;5036829;28;20049;-62
2021/11/09 01:58:55;;;;;;;18.77;5.20;;;;;;;;;;5035405;28;20025;-61
2021/11/09 02:01:21;;;;;;;13.77;3.55;;;;;;;;;;5034486;28;20526;-60
2021/11/09 02:03:48;;;;;;;24.70;5.80;;;;;;;;;;5036774;28;20060;-60
2021/11/09 02:06:14;;;;;;;6.38;2.22;;;;;;;;;;5036288;28;20017;-60
2021/11/09 02:08:40;;;;;;;8.73;3.08;;;;;;;;;;5037407;28;20032;-61
2021/11/09 02:11:05;;;;;;;6.93;2.47;;;;;;;;;;5032361;28;20448;-60
2021/11/09 02:13:31;;;;;;;7.78;3.95;;;;;;;;;;5034210;28;20129;-61
2021/11/09 02:15:57;;;;;;;4.93;1.73;;;;;;;;;;5034818;28;20033;-61
2021/11/09 02:18:23;;;;;;;8.18;2.45;;;;;;;;;;5035111;28;20096;-61
2021/11/09 02:21:11;;;;;;;8.52;3.05;;;;;;;;;;5032716;28;20142;-61
2021/11/09 02:23:37;;;;;;;10.73;3.58;;;;;;;;;;5034394;28;20086;-61
2021/11/09 02:26:04;;;;;;;4.43;2.05;;;;;;;;;;5034571;28;20022;-61
2021/11/09 02:28:30;;;;;;;6.38;2.47;;;;;;;;;;5034740;28;20022;-61
2021/11/09 02:30:56;;;;;;;11.20;3.10;;;;;;;;;;5034669;28;20022;-61
2021/11/09 02:33:21;;;;;;;9.77;3.60;;;;;;;;;;5036990;28;20060;-61
2021/11/09 02:35:47;;;;;;;3.15;1.60;;;;;;;;;;5031581;28;20079;-61
2021/11/09 02:38:12;;;;;;;6.72;2.60;;;;;;;;;;5037342;28;20057;-61
2021/11/09 02:40:38;;;;;;;8.32;2.45;;;;;;;;;;5036716;28;20426;-60
2021/11/09 02:43:06;;;;;;;4.93;2.10;;;;;;;;;;5031377;28;20021;-61
2021/11/09 02:45:40;;;;;;;8.23;3.78;;;;;;;;;;5033988;28;20389;-61
2021/11/09 02:50:45;;;;;;;9.75;3.92;;;;;;;;;;5035516;28;20036;-61
2021/11/09 02:55:57;;;;;;;5.53;2.95;;;;;;;;;;5037022;28;20031;-61
2021/11/09 02:58:30;;;;;;;5.78;1.70;;;;;;;;;;5039840;28;20025;-61
2021/11/09 03:11:48;;;;;;;7.25;3.35;;;;;;;;;;5042480;28;20053;-61
2021/11/09 03:14:13;;;;;;;20.98;3.50;;;;;;;;;;5038710;28;20032;-61
2021/11/09 03:16:43;;;;;;;12.48;5.30;;;;;;;;;;5036687;28;20032;-61
2021/11/09 03:46:31;;;;;;;17.27;4.68;;;;;;;;;;5036773;28;20080;-62
2021/11/09 03:48:56;;;;;;;13.68;3.20;;;;;;;;;;5039175;28;20057;-62
2021/11/09 03:51:22;;;;;;;12.90;5.65;;;;;;;;;;5036091;28;20578;-62
2021/11/09 03:53:48;;;;;;;8.10;1.88;;;;;;;;;;5037369;28;20395;-62
2021/11/09 03:56:25;;;;;;;18.95;5.45;;;;;;;;;;5037539;28;20489;-62
2021/11/09 03:58:52;;;;;;;6.15;2.45;;;;;;;;;;5036692;28;20025;-62
2021/11/09 04:01:29;;;;;;;13.00;4.47;;;;;;;;;;5033182;28;20048;-61
2021/11/09 04:04:11;;;;;;;33.28;6.40;;;;;;;;;;5036532;28;20025;-62
2021/11/09 04:06:42;;;;;;;10.52;1.30;;;;;;;;;;5036049;28;20037;-62
2021/11/09 04:14:14;;;;;;;16.23;4.38;;;;;;;;;;5035777;28;20124;-62
2021/11/09 04:46:15;;;;;;;13.73;5.53;;;;;;;;;;5035175;28;20044;-62
2021/11/09 05:11:37;;;;;;;14.75;5.28;;;;;;;;;;5035633;28;20018;-61
2021/11/09 05:14:04;;;;;;;20.38;5.80;;;;;;;;;;5035407;28;20029;-62
2021/11/09 05:16:29;;;;;;;18.75;4.43;;;;;;;;;;5034308;28;20504;-62
2021/11/09 05:18:54;;;;;;;13.68;6.43;;;;;;;;;;5034263;28;20489;-61
2021/11/09 05:21:20;;;;;;;23.60;5.82;;;;;;;;;;5032754;28;20037;-61
2021/11/09 05:23:45;;;;;;;19.27;5.90;;;;;;;;;;5033416;28;20126;-61
2021/11/09 05:26:10;;;;;;;23.42;6.25;;;;;;;;;;5037726;28;20021;-61
2021/11/09 05:28:36;;;;;;;17.90;6.43;;;;;;;;;;5035787;28;20384;-61
2021/11/09 05:31:02;;;;;;;7.65;3.10;;;;;;;;;;5034711;28;20398;-61
2021/11/09 05:33:28;;;;;;;13.38;4.43;;;;;;;;;;5036447;28;20025;-61
2021/11/09 05:35:56;;;;;;;16.60;7.38;;;;;;;;;;5033283;28;20071;-61
2021/11/09 05:38:29;;;;;;;13.38;5.45;;;;;;;;;;5034720;28;20017;-61
2021/11/09 05:41:05;;;;;;;19.58;4.88;;;;;;;;;;5032371;28;20025;-61
2021/11/09 05:43:31;;;;;;;15.80;5.60;;;;;;;;;;5034475;28;20112;-61
2021/11/09 05:45:56;;;;;;;18.67;3.28;;;;;;;;;;5034173;28;20624;-61
2021/11/09 05:48:22;;;;;;;12.85;4.32;;;;;;;;;;5032826;28;20363;-61
2021/11/09 05:50:47;;;;;;;9.55;2.97;;;;;;;;;;5037017;28;20025;-61
2021/11/09 05:53:13;;;;;;;13.93;4.40;;;;;;;;;;5031977;28;20017;-61
2021/11/09 05:55:38;;;;;;;19.20;6.03;;;;;;;;;;5035239;28;20068;-62
2021/11/09 05:58:03;;;;;;;8.32;3.05;;;;;;;;;;5034312;28;20041;-61
2021/11/09 06:00:29;;;;;;;18.98;4.65;;;;;;;;;;5035613;28;20032;-61
2021/11/09 06:02:54;;;;;;;14.38;5.20;;;;;;;;;;5032313;28;20017;-61
2021/11/09 06:05:19;;;;;;;17.88;4.30;;;;;;;;;;5032855;28;20439;-61
2021/11/09 06:07:45;;;;;;;15.98;5.88;;;;;;;;;;5033069;28;20044;-61
2021/11/09 06:10:10;;;;;;;16.40;6.80;;;;;;;;;;5032631;28;20021;-61
2021/11/09 06:12:35;;;;;;;15.48;5.50;;;;;;;;;;5037186;28;20021;-61
2021/11/09 06:15:01;;;;;;;13.00;5.03;;;;;;;;;;5034287;28;20568;-61
2021/11/09 06:17:27;;;;;;;10.75;4.25;;;;;;;;;;5034521;28;20075;-61
2021/11/09 06:19:52;;;;;;;14.95;5.60;;;;;;;;;;5038070;28;20484;-61
2021/11/09 06:22:18;;;;;;;20.08;5.43;;;;;;;;;;5033769;28;20412;-61
2021/11/09 06:24:43;;;;;;;10.68;4.13;;;;;;;;;;5037055;28;20024;-61
2021/11/09 06:27:09;;;;;;;10.40;4.05;;;;;;;;;;5038258;28;20029;-61
2021/11/09 06:29:35;;;;;;;4.47;2.25;;;;;;;;;;5036474;28;20029;-61
2021/11/09 06:32:00;;;;;;;6.80;3.40;;;;;;;;;;5037400;28;20492;-61
2021/11/09 06:34:26;;;;;;;15.65;4.70;;;;;;;;;;5038682;28;20017;-61
2021/11/09 06:36:51;;;;;;;11.43;6.28;;;;;;;;;;5037054;28;20089;-61
2021/11/09 06:39:17;;;;;;;7.05;3.60;;;;;;;;;;5038921;28;20068;-61
2021/11/09 06:41:42;;;;;;;9.60;3.72;;;;;;;;;;5038617;28;20025;-61
2021/11/09 06:44:07;;;;;;;10.23;4.22;;;;;;;;;;5039185;28;20027;-62
2021/11/09 06:46:33;;;;;;;13.63;6.28;;;;;;;;;;5039860;28;20013;-61
2021/11/09 06:48:58;;;;;;;11.48;3.42;;;;;;;;;;5041146;28;20416;-61
2021/11/09 06:51:23;;;;;;;12.70;4.93;;;;;;;;;;5038641;28;20058;-61
2021/11/09 06:53:49;;;;;;;10.00;3.38;;;;;;;;;;5040362;28;20041;-62
2021/11/09 06:56:14;;;;;;;12.18;4.55;;;;;;;;;;5038663;28;20052;-61
2021/11/09 06:58:39;;;;;;;7.50;3.75;;;;;;;;;;5042225;28;20436;-61
2021/11/09 07:01:05;;;;;;;12.23;5.03;;;;;;;;;;5038173;28;20029;-62
2021/11/09 07:03:33;;;;;;;11.57;3.95;;;;;;;;;;5037972;28;20034;-62
2021/11/09 07:05:58;;;;;;;5.90;4.15;;;;;;;;;;5039092;28;20104;-62
2021/11/09 07:08:24;;;;;;;27.75;4.80;;;;;;;;;;5036534;28;20109;-61
2021/11/09 07:10:49;;;;;;;13.68;5.18;;;;;;;;;;5038435;28;20078;-62
2021/11/09 07:13:14;;;;;;;15.35;5.45;;;;;;;;;;5039316;28;20021;-62
2021/11/09 07:15:40;;;;;;;13.90;6.07;;;;;;;;;;5038405;28;20098;-62
2021/11/09 07:18:07;;;;;;;21.23;5.72;;;;;;;;;;5037085;28;20025;-62
2021/11/09 07:20:32;;;;;;;14.15;5.78;;;;;;;;;;5039693;28;20263;-62
2021/11/09 07:23:00;;;;;;;28.65;5.00;;;;;;;;;;5037471;28;20540;-62
2021/11/09 07:25:26;;;;;;;18.00;5.20;;;;;;;;;;5040335;28;20033;-62
2021/11/09 07:27:51;;;;;;;23.08;4.63;;;;;;;;;;5039746;28;20028;-63
2021/11/09 07:30:17;;;;;;;11.02;4.57;;;;;;;;;;5037521;28;20516;-62
2021/11/09 07:32:44;;;;;;;14.57;5.32;;;;;;;;;;5035093;28;20483;-62
2021/11/09 07:35:10;;;;;;;12.15;4.65;;;;;;;;;;5040350;28;20116;-61
2021/11/09 07:37:36;;;;;;;8.50;3.75;;;;;;;;;;5036041;28;20147;-62
2021/11/09 07:40:01;;;;;;;6.95;4.75;;;;;;;;;;5036991;28;20044;-61
2021/11/09 07:42:27;;;;;;;22.60;6.30;;;;;;;;;;5035807;28;20443;-61
2021/11/09 07:44:53;;;;;;;13.27;3.97;;;;;;;;;;5033435;28;20029;-61
2021/11/09 07:47:19;;;;;;;10.75;5.45;;;;;;;;;;5037475;28;20441;-60
2021/11/09 07:49:45;;;;;;;7.15;4.28;;;;;;;;;;5038276;28;20041;-59
2021/11/09 07:52:11;;;;;;;14.98;3.67;;;;;;;;;;5032227;28;20018;-59
2021/11/09 07:54:38;;;;;;;9.52;3.67;;;;;;;;;;5034439;28;20279;-59
2021/11/09 07:57:09;;;;;;;17.67;4.32;;;;;;;;;;5036730;28;20036;-59
2021/11/09 07:59:41;;;;;;;6.90;3.08;;;;;;;;;;5035255;28;20036;-59
2021/11/09 08:02:11;;;;;;;9.20;3.35;;;;;;;;;;5037042;28;20044;-60
2021/11/09 08:07:12;;;;;;;17.58;5.70;;;;;;;;;;5038692;28;20523;-60
2021/11/09 08:09:38;;;;;;;13.20;5.15;;;;;;;;;;5035907;28;20029;-48
2021/11/09 08:12:04;;;;;;;14.75;5.03;;;;;;;;;;5039070;28;20021;-62
2021/11/09 08:14:30;;;;;;;10.68;4.47;;;;;;;;;;5039762;28;20056;-61
2021/11/09 08:16:55;;;;;;;17.08;5.85;;;;;;;;;;5032666;28;20469;-59
2021/11/09 08:19:21;;;;;;;20.02;7.32;;;;;;;;;;5033430;28;20025;-61
2021/11/09 08:21:48;;;;;;;27.05;6.88;;;;;;;;;;5035628;28;20025;-63
2021/11/09 08:24:17;;;;;;;11.88;5.20;;;;;;;;;;5035956;28;20483;-59
2021/11/09 08:26:42;;;;;;;10.95;5.13;;;;;;;;;;5036364;28;20643;-61
2021/11/09 08:29:08;;;;;;;24.42;6.38;;;;;;;;;;5035170;28;20135;-59
2021/11/09 08:31:34;;;;;;;20.20;6.28;;;;;;;;;;5037622;28;20031;-58
2021/11/09 08:34:02;;;;;;;14.38;3.97;;;;;;;;;;5030868;28;20135;-57
2021/11/09 08:36:29;;;;;;;20.48;6.90;;;;;;;;;;5035972;28;20021;-59
2021/11/09 08:38:59;;;;;;;22.63;8.48;;;;;;;;;;5033842;28;20591;-59
2021/11/09 08:41:28;;;;;;;23.75;3.85;;;;;;;;;;5033439;28;20560;-58
2021/11/09 08:44:09;;;;;;;18.50;5.03;;;;;;;;;;5035141;28;20033;-58
2021/11/09 08:46:39;;;;;;;27.80;6.75;;;;;;;;;;5035614;28;20057;-58
2021/11/09 08:49:07;;;;;;;21.15;5.22;;;;;;;;;;5034924;28;20057;-59
2021/11/09 08:51:32;;;;;;;14.05;5.75;;;;;;;;;;5030340;28;20033;-59
2021/11/09 08:54:10;;;;;;;32.88;4.32;;;;;;;;;;5032623;28;20047;-58
2021/11/09 09:04:50;;;;;;;14.18;3.45;;;;;;;;;;5035188;28;20041;-58
2021/11/09 09:07:15;;;;;;;10.55;5.65;;;;;;;;;;5033754;28;20035;-58
2021/11/09 09:09:41;;;;;;;17.45;7.35;;;;;;;;;;5034243;28;20021;-59
2021/11/09 09:12:06;;;;;;;30.05;8.45;;;;;;;;;;5034933;28;20020;-58
2021/11/09 09:14:31;;;;;;;27.05;6.25;;;;;;;;;;5035502;28;20083;-58
2021/11/09 09:16:58;;;;;;;13.20;4.90;;;;;;;;;;5034527;28;20025;-58
2021/11/09 09:19:28;;;;;;;18.92;6.20;;;;;;;;;;5035756;28;20033;-59
2021/11/09 09:54:43;;;;;;;18.65;5.50;;;;;;;;;;5041108;28;20025;-58
2021/11/09 09:56:55;;;;;;;31.85;8.07;;;;;;;;;;5036108;28;20492;-58
2021/11/09 09:59:24;;;;;;;12.82;3.53;;;;;;;;;;5035213;28;20051;-58
2021/11/09 10:02:06;;;;;;;31.70;8.85;;;;;;;;;;5035259;28;20032;-58
2021/11/09 10:04:33;;;;;;;5.07;2.55;;;;;;;;;;5036704;28;20541;-58
2021/11/09 10:06:59;;;;;;;10.40;4.28;;;;;;;;;;5035570;28;20565;-58
2021/11/09 10:09:42;;;;;;;15.60;5.13;;;;;;;;;;5036441;28;20028;-58
2021/11/09 10:12:34;;;;;;;27.52;5.53;;;;;;;;;;5037936;28;20191;-58
2021/11/09 10:15:10;;;;;;;16.17;6.53;;;;;;;;;;5036157;28;20017;-58
2021/11/09 10:17:37;;;;;;;18.67;7.20;;;;;;;;;;5032085;28;20127;-58
2021/11/09 10:20:17;;;;;;;41.30;9.00;;;;;;;;;;5032520;28;20223;-58
2021/11/09 10:22:47;;;;;;;22.48;6.75;;;;;;;;;;5036190;28;20101;-57
2021/11/09 10:25:14;;;;;;;16.50;6.43;;;;;;;;;;5034664;28;20540;-58
2021/11/09 10:27:41;;;;;;;29.33;6.10;;;;;;;;;;5032066;28;20029;-61
2021/11/09 10:30:07;;;;;;;16.95;5.25;;;;;;;;;;5032155;28;20025;-59
2021/11/09 10:32:32;;;;;;;13.10;5.20;;;;;;;;;;5034901;28;20073;-58
2021/11/09 10:35:02;;;;;;;23.27;7.28;;;;;;;;;;5033047;28;20075;-57
2021/11/09 10:37:28;;;;;;;7.80;5.03;;;;;;;;;;5034756;28;20059;-55
2021/11/09 10:39:56;;;;;;;35.90;9.23;;;;;;;;;;5036677;28;20034;-57
2021/11/09 10:42:23;;;;;;;19.02;6.75;;;;;;;;;;5035382;28;20024;-56
2021/11/09 10:45:10;;;;;;;15.20;7.25;;;;;;;;;;5033498;28;20013;-58
2021/11/09 10:47:38;;;;;;;15.23;6.30;;;;;;;;;;5030421;28;20021;-59
2021/11/09 10:50:23;;;;;;;24.30;7.45;;;;;;;;;;5030123;28;20049;-55
2021/11/09 10:53:04;;;;;;;18.08;6.35;;;;;;;;;;5031038;28;20072;-56
2021/11/09 11:06:25;;;;;;;15.38;6.13;;;;;;;;;;5035203;28;20483;-58
2021/11/09 11:08:53;;;;;;;11.02;4.00;;;;;;;;;;5035541;28;20037;-57
2021/11/09 11:11:29;;;;;;;15.35;6.18;;;;;;;;;;5031524;28;20112;-58
2021/11/09 11:14:06;;;;;;;10.13;7.25;;;;;;;;;;5036742;28;20598;-58
2021/11/09 11:16:37;;;;;;;8.85;5.63;;;;;;;;;;5037345;28;20037;-56
2021/11/09 11:19:03;;;;;;;14.32;8.48;;;;;;;;;;5040001;28;20025;-56
2021/11/09 11:21:29;;;;;;;18.52;6.97;;;;;;;;;;5037722;28;20580;-58
2021/11/09 11:23:54;;;;;;;18.20;7.53;;;;;;;;;;5039502;28;20393;-58
2021/11/09 11:26:20;;;;;;;17.40;8.45;;;;;;;;;;5036122;28;20112;-56
2021/11/09 11:28:46;;;;;;;19.13;5.43;;;;;;;;;;5035402;28;20025;-58
2021/11/09 11:31:12;;;;;;;22.77;9.65;;;;;;;;;;5037794;28;20404;-58
2021/11/09 11:33:38;;;;;;;9.27;5.20;;;;;;;;;;5038711;28;20093;-58
2021/11/09 11:36:03;;;;;;;27.92;8.73;;;;;;;;;;5038661;28;20558;-58
2021/11/09 11:38:29;;;;;;;12.73;5.43;;;;;;;;;;5036970;28;20029;-58
2021/11/09 11:40:55;;;;;;;20.02;6.82;;;;;;;;;;5042669;28;20469;-58
2021/11/09 11:43:56;;;;;;;26.25;6.20;;;;;;;;;;5039413;28;20021;-58
2021/11/09 11:46:34;;;;;;;27.40;7.30;;;;;;;;;;5005827;28;20124;-58
2021/11/09 11:49:05;;;;;;;35.67;10.15;;;;;;;;;;5036314;28;20050;-59
2021/11/09 11:51:35;;;;;;;10.88;4.65;;;;;;;;;;5037839;28;20034;-59
2021/11/09 11:54:01;;;;;;;27.80;7.13;;;;;;;;;;5034714;28;20156;-61
2021/11/09 11:56:39;;;;;;;19.27;7.10;;;;;;;;;;5040051;28;20068;-58
2021/11/09 11:59:05;;;;;;;16.15;4.32;;;;;;;;;;5037103;28;20388;-58
2021/11/09 12:01:37;;;;;;;22.60;5.95;;;;;;;;;;5039821;28;20116;-58
2021/11/09 12:04:07;;;;;;;12.85;5.03;;;;;;;;;;5038823;28;20508;-58
2021/11/09 12:06:32;;;;;;;10.85;5.55;;;;;;;;;;5038797;28;20598;-58
2021/11/09 12:08:58;;;;;;;15.82;4.57;;;;;;;;;;5038157;28;20021;-58
2021/11/09 12:11:23;;;;;;;17.00;5.85;;;;;;;;;;5038511;28;20384;-58
2021/11/09 12:14:12;;;;;;;10.75;5.35;;;;;;;;;;5038636;28;20027;-58
2021/11/09 12:16:44;;;;;;;25.60;5.85;;;;;;;;;;5032549;28;20460;-58
2021/11/09 12:19:30;;;;;;;14.65;6.90;;;;;;;;;;5034679;28;20075;-59
2021/11/09 12:22:05;;;;;;;16.45;5.15;;;;;;;;;;5034831;28;20168;-59
2021/11/09 12:24:43;;;;;;;25.35;7.03;;;;;;;;;;5038105;28;20021;-57
2021/11/09 12:27:09;;;;;;;12.73;4.95;;;;;;;;;;5032080;28;20036;-58
2021/11/09 12:29:37;;;;;;;32.83;8.00;;;;;;;;;;5035401;28;20028;-58
2021/11/09 12:32:20;;;;;;;12.63;6.15;;;;;;;;;;5035890;28;20378;-58
2021/11/09 12:34:57;;;;;;;19.50;5.57;;;;;;;;;;5038671;28;20096;-58
2021/11/09 12:37:22;;;;;;;12.32;5.10;;;;;;;;;;5036951;28;20021;-59
2021/11/09 12:39:48;;;;;;;31.05;5.50;;;;;;;;;;5035736;28;20032;-58
2021/11/09 12:42:13;;;;;;;21.30;8.57;;;;;;;;;;5035015;28;20021;-57
2021/11/09 12:44:38;;;;;;;12.70;5.13;;;;;;;;;;5035436;28;20029;-58
2021/11/09 12:47:11;;;;;;;21.23;8.75;;;;;;;;;;5035669;28;20021;-58
2021/11/09 12:49:39;;;;;;;17.88;6.75;;;;;;;;;;5037440;28;20408;-58
2021/11/09 12:52:04;;;;;;;25.13;7.75;;;;;;;;;;5036481;28;20732;-58
2021/11/09 12:54:30;;;;;;;14.93;8.55;;;;;;;;;;5038281;28;20071;-58
2021/11/09 12:57:00;;;;;;;15.55;7.07;;;;;;;;;;5037157;28;20029;-58
2021/11/09 13:01:59;;;;;;;11.82;4.28;;;;;;;;;;5038492;28;20029;-58
2021/11/09 13:04:31;;;;;;;20.70;5.65;;;;;;;;;;5037320;28;20107;-58
2021/11/09 13:07:10;;;;;;;;;;;;;;;;;;5039339;28;20020;-58
2021/11/09 13:09:43;;;;;;;29.33;6.82;;;;;;;;;;5032174;28;19958;-58
2021/11/09 13:12:16;;;;;;;24.08;6.78;;;;;;;;;;5034009;28;20021;-58
2021/11/09 13:14:49;;;;;;;8.38;5.05;;;;;;;;;;5034764;28;20029;-56
2021/11/09 13:17:20;;;;;;;8.10;5.07;;;;;;;;;;5035664;28;20484;-58
2021/11/09 13:19:47;;;;;;;15.15;5.53;;;;;;;;;;5038454;28;20048;-57
2021/11/09 13:22:14;;;;;;;17.10;6.22;;;;;;;;;;5035803;28;20049;-59
2021/11/09 13:24:44;;;;;;;7.15;3.80;;;;;;;;;;5036382;28;20759;-57
2021/11/09 13:27:10;;;;;;;15.25;6.25;;;;;;;;;;5036223;28;20116;-57
2021/11/09 13:29:44;;;;;;;12.02;4.40;;;;;;;;;;5036646;28;20021;-57
2021/11/09 13:32:09;;;;;;;14.02;5.80;;;;;;;;;;5035969;28;20027;-57
2021/11/09 13:34:35;;;;;;;12.32;6.53;;;;;;;;;;5035161;28;20017;-57
2021/11/09 13:37:00;;;;;;;25.92;5.95;;;;;;;;;;5033583;28;20432;-59
2021/11/09 13:39:25;;;;;;;22.92;5.55;;;;;;;;;;5033358;28;20770;-58
2021/11/09 13:41:51;;;;;;;14.38;6.60;;;;;;;;;;5036207;28;20028;-58
2021/11/09 13:44:16;;;;;;;26.92;5.60;;;;;;;;;;5035254;28;20033;-58
2021/11/09 13:46:43;;;;;;;13.18;5.55;;;;;;;;;;5036570;28;20067;-59
2021/11/09 13:49:11;;;;;;;24.63;6.38;;;;;;;;;;5035084;28;20046;-58
2021/11/09 13:51:47;;;;;;;26.73;8.13;;;;;;;;;;5033276;28;20074;-56
2021/11/09 13:54:17;;;;;;;16.42;5.03;;;;;;;;;;5035238;28;20087;-58
2021/11/09 13:56:46;;;;;;;11.60;5.32;;;;;;;;;;5034950;28;20484;-57
2021/11/09 13:59:12;;;;;;;18.73;7.13;;;;;;;;;;5034742;28;20044;-56
2021/11/09 14:01:41;;;;;;;19.05;7.90;;;;;;;;;;5032920;28;20033;-57
2021/11/09 14:04:18;;;;;;;10.52;4.65;;;;;;;;;;5036500;28;20175;-58
2021/11/09 14:17:40;;;;;;;7.22;4.93;;;;;;;;;;5036011;28;20698;-57
2021/11/09 14:20:09;;;;;;;20.23;7.90;;;;;;;;;;5035227;28;20116;-59
2021/11/09 14:22:35;;;;;;;18.27;6.18;;;;;;;;;;5032320;28;20076;-57
2021/11/09 14:25:02;;;;;;;9.27;4.50;;;;;;;;;;5032023;28;20021;-58
2021/11/09 14:27:28;;;;;;;25.10;6.10;;;;;;;;;;5035123;28;20025;-58
2021/11/09 14:29:55;;;;;;;12.90;4.18;;;;;;;;;;5033955;28;20025;-57
2021/11/09 14:32:22;;;;;;;10.38;5.15;;;;;;;;;;5034842;28;20024;-57
2021/11/09 14:34:54;;;;;;;18.52;7.15;;;;;;;;;;5031735;28;20020;-58
2021/11/09 14:37:25;;;;;;;15.48;6.13;;;;;;;;;;5033915;28;20022;-58
2021/11/09 14:40:11;;;;;;;11.13;4.77;;;;;;;;;;5030802;28;20029;-58
2021/11/09 14:45:26;;;;;;;10.90;4.07;;;;;;;;;;5031602;28;20072;-57
2021/11/09 14:47:56;;;;;;;17.48;5.85;;;;;;;;;;5039913;28;20024;-57
2021/11/09 14:50:39;;;;;;;18.02;5.30;;;;;;;;;;5038476;28;20068;-58
2021/11/09 14:53:06;;;;;;;14.98;6.65;;;;;;;;;;5036731;28;20018;-57
2021/11/09 14:55:43;;;;;;;25.38;10.52;;;;;;;;;;5037368;28;20930;-59
2021/11/09 14:58:23;;;;;;;27.98;10.32;;;;;;;;;;5038084;28;20060;-59
2021/11/09 15:00:49;;;;;;;31.17;5.82;;;;;;;;;;5037036;28;20042;-59
2021/11/09 15:03:14;;;;;;;11.05;5.88;;;;;;;;;;5038057;28;20058;-62
2021/11/09 15:05:40;;;;;;;26.95;7.53;;;;;;;;;;5040555;28;20025;-59
2021/11/09 15:08:12;;;;;;;11.85;7.50;;;;;;;;;;5038656;28;20186;-59
2021/11/09 15:11:04;;;;;;;10.68;4.95;;;;;;;;;;5037777;28;20024;-59
2021/11/09 15:13:46;;;;;;;13.30;4.78;;;;;;;;;;5037790;28;20033;-59
2021/11/09 15:27:21;;;;;;;13.98;6.32;;;;;;;;;;5038705;28;20082;-58
2021/11/09 15:29:51;;;;;;;16.02;6.55;;;;;;;;;;5040780;28;20047;-58
2021/11/09 15:32:38;;;;;;;5.20;3.20;;;;;;;;;;5040889;28;20024;-58
2021/11/09 15:35:13;;;;;;;4.57;2.60;;;;;;;;;;5037898;28;20087;-58
2021/11/09 15:37:43;;;;;;;5.32;2.80;;;;;;;;;;5037830;28;20056;-58
2021/11/09 15:40:11;;;;;;;7.43;3.38;;;;;;;;;;5037927;28;20040;-58
2021/11/09 15:42:37;;;;;;;15.10;5.97;;;;;;;;;;5034736;28;20676;-58
2021/11/09 15:45:03;;;;;;;14.18;4.50;;;;;;;;;;5035916;28;20119;-58
2021/11/09 15:47:29;;;;;;;12.15;4.05;;;;;;;;;;5034296;28;20108;-58
2021/11/09 15:49:54;;;;;;;9.63;4.90;;;;;;;;;;5038132;28;20069;-58
2021/11/09 15:52:19;;;;;;;12.27;4.40;;;;;;;;;;5034284;28;20060;-58
2021/11/09 15:54:46;;;;;;;6.10;2.92;;;;;;;;;;5035368;28;20025;-58
2021/11/09 15:57:11;;;;;;;12.25;3.35;;;;;;;;;;5035644;28;20021;-59
2021/11/09 15:59:36;;;;;;;14.18;5.50;;;;;;;;;;5038104;28;20025;-59
2021/11/09 16:02:02;;;;;;;15.57;5.50;;;;;;;;;;5034692;28;20021;-59
2021/11/09 16:04:31;;;;;;;9.35;3.53;;;;;;;;;;5034303;28;20032;-58
2021/11/09 16:07:00;;;;;;;16.92;6.32;;;;;;;;;;5036919;28;20033;-57
2021/11/09 16:09:25;;;;;;;30.42;7.45;;;;;;;;;;5037421;28;20036;-57
2021/11/09 16:11:51;;;;;;;17.17;6.60;;;;;;;;;;5035087;28;20017;-57
2021/11/09 16:14:17;;;;;;;13.73;5.32;;;;;;;;;;5031868;28;20041;-58
2021/11/09 16:16:42;;;;;;;4.57;2.97;;;;;;;;;;5033146;28;20021;-58
2021/11/09 16:19:08;;;;;;;15.00;6.03;;;;;;;;;;5030814;28;20021;-58
2021/11/09 16:21:35;;;;;;;19.83;8.07;;;;;;;;;;5036998;28;20037;-60
2021/11/09 16:24:01;;;;;;;16.10;7.82;;;;;;;;;;5038222;28;20542;-60
2021/11/09 16:26:26;;;;;;;19.00;5.80;;;;;;;;;;5038245;28;20471;-60
2021/11/09 16:28:52;;;;;;;19.10;7.35;;;;;;;;;;5032052;28;20521;-60
2021/11/09 16:31:18;;;;;;;17.80;6.70;;;;;;;;;;5034252;28;20433;-60
2021/11/09 16:33:43;;;;;;;14.68;5.70;;;;;;;;;;5033015;28;20471;-60
2021/11/09 16:36:12;;;;;;;12.35;5.10;;;;;;;;;;5035733;28;20109;-60
2021/11/09 16:38:42;;;;;;;21.23;6.85;;;;;;;;;;5032940;28;20108;-60
2021/11/09 16:41:10;;;;;;;12.25;3.22;;;;;;;;;;5032730;28;20044;-55
2021/11/09 16:43:42;;;;;;;9.93;5.38;;;;;;;;;;5034851;28;20540;-57
2021/11/09 16:48:52;;;;;;;21.58;5.95;;;;;;;;;;5029237;28;20021;-57
2021/11/09 16:51:26;;;;;;;22.35;7.15;;;;;;;;;;5031801;28;20025;-57
2021/11/09 16:54:02;;;;;;;16.05;5.28;;;;;;;;;;5037873;28;20027;-57
2021/11/09 16:56:39;;;;;;;13.57;4.15;;;;;;;;;;5033314;28;20033;-57
2021/11/09 17:23:52;;;;;;;10.57;6.20;;;;;;;;;;5031283;28;20071;-57
2021/11/09 18:20:49;;;;;;;22.40;6.45;;;;;;;;;;5046128;28;20028;-63
2021/11/09 18:23:14;;;;;;;17.20;4.07;;;;;;;;;;5032728;28;20493;-65
2021/11/09 18:25:40;;;;;;;3.05;2.22;;;;;;;;;;5034350;28;20236;-63
2021/11/09 18:28:07;;;;;;;7.30;3.33;;;;;;;;;;5032089;28;20519;-63
2021/11/09 18:30:34;;;;;;;6.50;2.67;;;;;;;;;;5028791;28;20809;-64
2021/11/09 18:33:00;;;;;;;7.53;3.20;;;;;;;;;;5030990;28;20061;-62
2021/11/09 18:35:26;;;;;;;5.72;2.20;;;;;;;;;;5034678;28;20060;-62
2021/11/09 18:37:56;;;;;;;4.75;3.15;;;;;;;;;;5029523;28;20056;-61
2021/11/09 18:40:22;;;;;;;7.22;3.67;;;;;;;;;;5030530;28;20055;-61
2021/11/09 18:42:48;;;;;;;3.13;1.70;;;;;;;;;;5030533;28;20029;-59
2021/11/09 18:45:17;;;;;;;12.98;3.45;;;;;;;;;;5034750;28;20049;-62
2021/11/09 18:47:46;;;;;;;7.05;2.78;;;;;;;;;;5029546;28;20032;-71
2021/11/09 18:50:12;;;;;;;8.50;4.57;;;;;;;;;;5032780;28;20524;-66
2021/11/09 18:52:38;;;;;;;5.22;2.70;;;;;;;;;;5034982;28;20489;-66
2021/11/09 18:55:03;;;;;;;6.45;1.60;;;;;;;;;;5034390;28;20106;-68
2021/11/09 18:57:29;;;;;;;14.68;2.22;;;;;;;;;;5035072;28;20021;-64
2021/11/09 18:59:57;;;;;;;6.00;1.98;;;;;;;;;;5031644;28;20912;-67
2021/11/09 19:02:23;;;;;;;4.57;1.65;;;;;;;;;;5032178;28;20032;-68
2021/11/09 19:04:48;;;;;;;5.55;2.03;;;;;;;;;;5029013;28;20029;-67